createdAt,value
2017-12-19T00:01:06.459Z,22.80
2017-12-19T00:03:34.037Z,20.70
2017-12-19T00:06:01.710Z,19.50
2017-12-19T00:08:30.046Z,22.90
2017-12-19T00:10:57.594Z,21.83
2017-12-19T00:13:25.191Z,23.30
2017-12-19T00:15:52.784Z,25.10
2017-12-19T00:18:21.118Z,26.40
2017-12-19T00:20:49.433Z,23.17
2017-12-19T00:23:17.777Z,23.07
2017-12-19T00:25:46.202Z,23.80
2017-12-19T00:28:14.547Z,23.83
2017-12-19T00:30:42.112Z,24.67
2017-12-19T00:33:09.695Z,24.80
2017-12-19T00:35:38.007Z,24.17
2017-12-19T00:38:05.753Z,23.27
2017-12-19T00:40:33.314Z,23.80
2017-12-19T00:43:00.941Z,25.53
2017-12-19T00:45:28.564Z,22.70
2017-12-19T00:47:56.122Z,23.87
2017-12-19T00:50:23.709Z,23.47
2017-12-19T00:52:51.325Z,22.97
2017-12-19T00:55:18.908Z,23.07
2017-12-19T00:57:47.066Z,23.10
2017-12-19T01:00:14.641Z,23.33
2017-12-19T01:02:42.214Z,23.93
2017-12-19T01:05:09.798Z,25.00
2017-12-19T01:07:37.358Z,22.13
2017-12-19T01:10:04.945Z,21.83
2017-12-19T01:12:33.353Z,22.67
2017-12-19T01:15:00.983Z,21.40
2017-12-19T01:17:29.313Z,22.80
2017-12-19T01:19:56.878Z,22.27
2017-12-19T01:22:24.482Z,21.70
2017-12-19T01:24:52.791Z,21.57
2017-12-19T01:27:20.366Z,26.07
2017-12-19T01:29:47.932Z,23.20
2017-12-19T01:32:15.589Z,22.50
2017-12-19T01:34:43.512Z,23.03
2017-12-19T01:37:11.988Z,22.63
2017-12-19T01:39:40.313Z,22.67
2017-12-19T01:42:07.869Z,23.37
2017-12-19T01:44:35.464Z,23.47
2017-12-19T01:47:03.018Z,23.80
2017-12-19T01:49:30.614Z,23.40
2017-12-19T01:51:59.128Z,24.27
2017-12-19T01:54:26.694Z,22.20
2017-12-19T01:56:54.256Z,24.10
2017-12-19T01:59:21.826Z,24.13
2017-12-19T02:01:49.497Z,24.03
2017-12-19T02:04:17.095Z,24.03
2017-12-19T02:06:45.987Z,23.90
2017-12-19T02:09:13.578Z,23.90
2017-12-19T02:11:41.139Z,23.70
2017-12-19T02:14:08.690Z,21.00
2017-12-19T02:16:36.257Z,24.47
2017-12-19T02:19:03.817Z,22.80
2017-12-19T02:21:31.392Z,23.20
2017-12-19T02:23:58.933Z,22.50
2017-12-19T02:26:26.481Z,23.37
2017-12-19T02:28:54.827Z,22.43
2017-12-19T02:31:22.870Z,22.87
2017-12-19T02:33:50.794Z,22.50
2017-12-19T02:36:18.371Z,22.70
2017-12-19T02:38:46.689Z,22.40
2017-12-19T02:41:14.282Z,23.77
2017-12-19T02:43:41.900Z,23.00
2017-12-19T02:46:10.237Z,22.80
2017-12-19T02:48:38.586Z,23.47
2017-12-19T02:51:06.153Z,22.93
2017-12-19T02:53:33.718Z,25.37
2017-12-19T02:56:01.257Z,24.70
2017-12-19T02:58:28.810Z,23.93
2017-12-19T03:00:56.393Z,25.30
2017-12-19T03:03:23.974Z,23.80
2017-12-19T03:05:52.299Z,25.80
2017-12-19T03:08:19.871Z,25.77
2017-12-19T03:10:47.440Z,24.60
2017-12-19T03:13:14.998Z,25.67
2017-12-19T03:15:42.557Z,26.53
2017-12-19T03:18:10.163Z,22.97
2017-12-19T03:20:38.528Z,26.60
2017-12-19T03:23:06.079Z,23.60
2017-12-19T03:25:33.630Z,23.50
2017-12-19T03:28:01.169Z,23.73
2017-12-19T03:30:28.748Z,21.80
2017-12-19T03:32:56.289Z,24.20
2017-12-19T03:35:23.861Z,24.83
2017-12-19T03:37:51.529Z,23.00
2017-12-19T03:40:20.001Z,24.47
2017-12-19T03:42:47.569Z,24.33
2017-12-19T03:45:15.121Z,25.20
2017-12-19T03:47:42.694Z,25.73
2017-12-19T03:50:10.245Z,26.27
2017-12-19T03:52:37.809Z,23.80
2017-12-19T03:55:05.363Z,24.30
2017-12-19T03:57:32.969Z,23.10
2017-12-19T04:00:00.489Z,23.37
2017-12-19T04:02:28.077Z,22.70
2017-12-19T04:04:55.624Z,22.30
2017-12-19T04:07:23.179Z,25.37
2017-12-19T04:09:50.744Z,22.43
2017-12-19T04:12:18.278Z,22.37
2017-12-19T04:14:45.847Z,22.90
2017-12-19T04:17:13.401Z,21.90
2017-12-19T04:19:40.982Z,21.90
2017-12-19T04:22:08.529Z,20.27
2017-12-19T04:24:36.078Z,22.47
2017-12-19T04:27:03.801Z,22.80
2017-12-19T04:29:32.150Z,23.37
2017-12-19T04:31:59.689Z,22.20
2017-12-19T04:34:27.273Z,21.60
2017-12-19T04:36:54.810Z,21.87
2017-12-19T04:39:22.458Z,23.87
2017-12-19T04:41:50.017Z,23.13
2017-12-19T04:44:17.697Z,20.40
2017-12-19T04:46:45.278Z,21.13
2017-12-19T04:49:12.835Z,24.17
2017-12-19T04:51:40.410Z,24.17
2017-12-19T04:54:07.955Z,20.73
2017-12-19T04:56:35.514Z,20.77
2017-12-19T04:59:03.062Z,21.17
2017-12-19T05:01:30.643Z,21.17
2017-12-19T05:03:58.202Z,22.07
2017-12-19T05:06:25.811Z,19.27
2017-12-19T05:08:53.394Z,20.50
2017-12-19T05:11:21.711Z,20.07
2017-12-19T05:13:49.266Z,20.30
2017-12-19T05:16:16.843Z,20.50
2017-12-19T05:18:44.405Z,21.50
2017-12-19T05:21:12.727Z,24.13
2017-12-19T05:23:40.379Z,19.93
2017-12-19T05:26:08.006Z,18.87
2017-12-19T05:28:35.594Z,20.00
2017-12-19T05:31:03.154Z,20.60
2017-12-19T05:33:30.729Z,22.27
2017-12-19T05:35:58.288Z,20.20
2017-12-19T05:38:25.899Z,19.57
2017-12-19T05:40:53.462Z,21.00
2017-12-19T05:43:21.091Z,23.30
2017-12-19T05:45:48.653Z,20.23
2017-12-19T05:48:16.230Z,21.83
2017-12-19T05:50:43.829Z,21.53
2017-12-19T05:53:12.150Z,21.33
2017-12-19T05:55:39.714Z,21.80
2017-12-19T05:58:07.268Z,22.00
2017-12-19T06:00:34.826Z,21.80
2017-12-19T06:03:02.411Z,22.70
2017-12-19T06:05:30.142Z,23.23
2017-12-19T06:07:57.731Z,25.03
2017-12-19T06:10:26.057Z,31.97
2017-12-19T06:12:54.424Z,30.63
2017-12-19T06:15:22.759Z,27.57
2017-12-19T06:17:50.337Z,24.97
2017-12-19T06:20:17.903Z,27.03
2017-12-19T06:22:45.456Z,25.60
2017-12-19T06:25:13.011Z,24.97
2017-12-19T06:27:40.591Z,26.70
2017-12-19T06:30:08.155Z,27.07
2017-12-19T06:32:35.750Z,26.63
2017-12-19T06:35:04.158Z,26.97
2017-12-19T06:37:31.735Z,27.60
2017-12-19T06:39:59.271Z,28.17
2017-12-19T06:42:26.859Z,31.10
2017-12-19T06:44:54.444Z,30.50
2017-12-19T06:47:28.499Z,31.83
2017-12-19T06:49:56.926Z,28.27
2017-12-19T06:52:25.302Z,27.50
2017-12-19T06:54:52.869Z,28.33
2017-12-19T06:57:20.413Z,29.10
2017-12-19T06:59:47.990Z,26.83
2017-12-19T07:02:15.537Z,26.60
2017-12-19T07:04:43.231Z,26.50
2017-12-19T07:07:11.562Z,29.50
2017-12-19T07:09:39.494Z,28.17
2017-12-19T07:12:07.039Z,28.60
2017-12-19T07:14:35.370Z,28.40
2017-12-19T07:17:02.945Z,27.73
2017-12-19T07:19:30.562Z,27.80
2017-12-19T07:21:58.105Z,28.33
2017-12-19T07:24:26.418Z,26.50
2017-12-19T07:26:53.996Z,25.47
2017-12-19T07:29:21.567Z,27.60
2017-12-19T07:31:49.172Z,25.97
2017-12-19T07:34:17.475Z,25.50
2017-12-19T07:36:45.822Z,24.43
2017-12-19T07:39:14.131Z,25.40
2017-12-19T07:41:41.691Z,25.67
2017-12-19T07:44:09.254Z,26.77
2017-12-19T07:46:36.798Z,25.90
2017-12-19T07:49:04.398Z,25.73
2017-12-19T07:51:32.009Z,27.47
2017-12-19T07:54:00.358Z,26.90
2017-12-19T07:56:27.934Z,26.30
2017-12-19T07:58:56.257Z,25.40
2017-12-19T08:01:24.009Z,26.13
2017-12-19T08:03:51.559Z,25.87
2017-12-19T08:06:19.155Z,25.93
2017-12-19T08:08:46.733Z,26.10
2017-12-19T08:11:14.310Z,24.93
2017-12-19T08:13:41.908Z,25.20
2017-12-19T08:16:09.502Z,28.37
2017-12-19T08:18:37.074Z,28.23
2017-12-19T08:21:04.688Z,29.67
2017-12-19T08:23:32.302Z,27.30
2017-12-19T08:25:59.929Z,25.30
2017-12-19T08:28:27.493Z,25.23
2017-12-19T08:30:55.082Z,26.83
2017-12-19T08:33:22.654Z,25.47
2017-12-19T08:35:50.244Z,26.60
2017-12-19T08:38:18.596Z,25.43
2017-12-19T08:40:46.182Z,25.20
2017-12-19T08:43:14.490Z,24.40
2017-12-19T08:45:42.070Z,22.73
2017-12-19T08:48:09.723Z,26.53
2017-12-19T08:50:37.303Z,25.23
2017-12-19T08:53:04.920Z,23.63
2017-12-19T08:55:33.246Z,25.37
2017-12-19T08:58:00.854Z,23.23
2017-12-19T09:00:29.170Z,25.50
2017-12-19T09:02:56.758Z,24.43
2017-12-19T09:05:24.345Z,24.40
2017-12-19T09:07:52.712Z,24.90
2017-12-19T09:10:20.357Z,23.03
2017-12-19T09:12:47.955Z,22.33
2017-12-19T09:15:16.300Z,23.10
2017-12-19T09:17:43.918Z,21.47
2017-12-19T09:20:11.523Z,23.83
2017-12-19T09:22:39.112Z,22.07
2017-12-19T09:25:07.461Z,21.67
2017-12-19T09:27:35.020Z,22.90
2017-12-19T09:30:02.617Z,23.17
2017-12-19T09:32:30.995Z,22.40
2017-12-19T09:34:59.338Z,22.60
2017-12-19T09:37:27.044Z,19.70
2017-12-19T09:39:55.451Z,21.27
2017-12-19T09:42:23.037Z,21.30
2017-12-19T09:44:50.696Z,21.57
2017-12-19T09:47:18.251Z,18.77
2017-12-19T09:49:45.840Z,20.98
2017-12-19T09:52:13.394Z,22.87
2017-12-19T09:54:40.964Z,21.20
2017-12-19T09:57:08.539Z,22.97
2017-12-19T09:59:36.854Z,22.40
2017-12-19T10:02:04.465Z,23.60
2017-12-19T10:04:32.045Z,24.77
2017-12-19T10:07:00.406Z,23.10
2017-12-19T10:09:27.962Z,21.23
2017-12-19T10:11:55.565Z,24.27
2017-12-19T10:14:23.120Z,22.90
2017-12-19T10:16:50.705Z,24.87
2017-12-19T10:19:18.335Z,22.33
2017-12-19T10:21:46.657Z,23.30
2017-12-19T10:24:14.235Z,23.33
2017-12-19T10:26:41.794Z,24.37
2017-12-19T10:29:09.377Z,24.27
2017-12-19T10:31:36.932Z,23.63
2017-12-19T10:34:04.496Z,25.53
2017-12-19T10:36:32.169Z,23.50
2017-12-19T10:39:00.517Z,24.53
2017-12-19T10:41:28.086Z,26.67
2017-12-19T10:43:55.656Z,25.03
2017-12-19T10:46:23.340Z,25.57
2017-12-19T10:48:51.694Z,25.97
2017-12-19T10:51:19.277Z,23.40
2017-12-19T10:53:47.618Z,26.10
2017-12-19T10:56:15.190Z,25.00
2017-12-19T10:58:42.757Z,24.40
2017-12-19T11:01:10.350Z,24.83
2017-12-19T11:03:37.934Z,23.97
2017-12-19T11:06:05.606Z,22.50
2017-12-19T11:08:33.245Z,24.53
2017-12-19T11:11:00.821Z,24.00
2017-12-19T11:13:28.414Z,23.50
2017-12-19T11:15:55.983Z,24.53
2017-12-19T11:18:23.530Z,23.37
2017-12-19T11:20:51.120Z,22.03
2017-12-19T11:23:19.434Z,21.10
2017-12-19T11:25:47.021Z,20.20
2017-12-19T11:28:14.679Z,22.20
2017-12-19T11:30:42.254Z,22.07
2017-12-19T11:33:09.821Z,23.20
2017-12-19T11:35:37.462Z,21.60
2017-12-19T11:38:05.005Z,24.00
2017-12-19T11:40:32.577Z,19.53
2017-12-19T11:43:00.917Z,21.63
2017-12-19T11:45:29.246Z,17.73
2017-12-19T11:47:56.837Z,20.87
2017-12-19T11:50:24.441Z,22.00
2017-12-19T11:52:52.018Z,21.07
2017-12-19T11:55:19.629Z,20.40
2017-12-19T11:57:47.972Z,19.73
2017-12-19T12:00:15.514Z,20.37
2017-12-19T12:02:43.125Z,22.27
2017-12-19T12:05:11.479Z,20.80
2017-12-19T12:07:39.471Z,21.50
2017-12-19T12:10:07.029Z,20.90
2017-12-19T12:12:34.661Z,21.93
2017-12-19T12:15:02.226Z,21.20
2017-12-19T12:17:29.826Z,23.70
2017-12-19T12:19:58.169Z,21.60
2017-12-19T12:22:25.769Z,21.83
2017-12-19T12:24:54.098Z,22.53
2017-12-19T12:27:24.241Z,23.37
2017-12-19T12:29:54.210Z,22.20
2017-12-19T12:32:22.095Z,23.83
2017-12-19T12:34:50.014Z,22.97
2017-12-19T12:37:17.570Z,21.93
2017-12-19T12:39:45.173Z,22.93
2017-12-19T12:42:13.494Z,20.37
2017-12-19T12:44:41.118Z,22.80
2017-12-19T12:47:08.670Z,25.10
2017-12-19T12:49:36.263Z,22.37
2017-12-19T12:52:03.833Z,26.73
2017-12-19T12:54:32.032Z,24.50
2017-12-19T12:56:59.657Z,23.50
2017-12-19T12:59:27.265Z,23.33
2017-12-19T13:01:54.899Z,23.10
2017-12-19T13:04:22.505Z,22.60
2017-12-19T13:06:50.860Z,24.27
2017-12-19T13:09:18.450Z,22.60
2017-12-19T13:11:46.035Z,25.23
2017-12-19T13:14:13.621Z,23.37
2017-12-19T13:16:41.175Z,22.23
2017-12-19T13:19:08.754Z,22.30
2017-12-19T13:21:36.362Z,22.67
2017-12-19T13:24:03.945Z,23.30
2017-12-19T13:26:31.545Z,20.97
2017-12-19T13:28:59.195Z,21.77
2017-12-19T13:31:26.809Z,22.07
2017-12-19T13:33:54.580Z,21.87
2017-12-19T13:36:22.170Z,21.40
2017-12-19T13:38:49.790Z,21.23
2017-12-19T13:41:17.397Z,21.80
2017-12-19T13:43:45.171Z,19.50
2017-12-19T13:46:12.771Z,23.17
2017-12-19T13:48:41.244Z,21.17
2017-12-19T13:51:11.906Z,22.77
2017-12-19T13:53:39.581Z,21.63
2017-12-19T13:56:07.162Z,19.70
2017-12-19T13:58:34.753Z,21.77
2017-12-19T14:01:03.082Z,19.83
2017-12-19T14:03:30.668Z,22.37
2017-12-19T14:05:58.245Z,20.93
2017-12-19T14:08:25.931Z,21.60
2017-12-19T14:10:54.363Z,22.03
2017-12-19T14:13:27.527Z,21.47
2017-12-19T14:15:56.157Z,19.60
2017-12-19T14:18:23.710Z,21.03
2017-12-19T14:20:51.306Z,20.03
2017-12-19T14:23:19.643Z,19.27
2017-12-19T14:25:47.345Z,20.80
2017-12-19T14:28:15.744Z,19.43
2017-12-19T14:30:43.529Z,19.53
2017-12-19T14:33:11.206Z,19.80
2017-12-19T14:35:38.793Z,21.17
2017-12-19T14:38:06.403Z,21.53
2017-12-19T14:40:34.010Z,20.10
2017-12-19T14:43:01.592Z,19.23
2017-12-19T14:45:29.942Z,20.77
2017-12-19T14:47:57.514Z,20.37
2017-12-19T14:50:25.084Z,20.07
2017-12-19T14:52:52.700Z,21.03
2017-12-19T14:55:20.509Z,20.07
2017-12-19T14:57:48.115Z,20.63
2017-12-19T15:00:15.712Z,22.67
2017-12-19T15:02:43.640Z,20.23
2017-12-19T15:05:11.238Z,21.53
2017-12-19T15:07:38.769Z,20.57
2017-12-19T15:10:06.467Z,21.70
2017-12-19T15:12:34.037Z,22.83
2017-12-19T15:15:01.646Z,20.90
2017-12-19T15:17:29.213Z,22.87
2017-12-19T15:19:56.813Z,25.87
2017-12-19T15:22:24.407Z,23.00
2017-12-19T15:24:52.827Z,25.40
2017-12-19T15:27:20.389Z,22.47
2017-12-19T15:29:47.984Z,22.37
2017-12-19T15:32:15.590Z,21.30
2017-12-19T15:34:47.323Z,25.20
2017-12-19T15:37:14.913Z,23.53
2017-12-19T15:39:46.002Z,22.20
2017-12-19T15:42:13.614Z,22.90
2017-12-19T15:44:48.010Z,23.27
2017-12-19T15:47:23.905Z,22.13
2017-12-19T15:49:53.503Z,23.47
2017-12-19T15:52:21.427Z,22.40
2017-12-19T15:54:52.713Z,21.70
2017-12-19T15:57:21.100Z,22.77
2017-12-19T15:59:52.448Z,22.43
2017-12-19T16:02:20.049Z,22.93
2017-12-19T16:04:47.670Z,23.90
2017-12-19T16:07:15.243Z,23.93
2017-12-19T16:09:42.832Z,23.43
2017-12-19T16:12:10.383Z,24.50
2017-12-19T16:14:37.989Z,23.80
2017-12-19T16:17:06.329Z,24.13
2017-12-19T16:19:33.914Z,23.27
2017-12-19T16:22:01.508Z,23.50
2017-12-19T16:24:29.854Z,23.80
2017-12-19T16:26:57.521Z,25.03
2017-12-19T16:29:25.096Z,24.17
2017-12-19T16:31:53.448Z,24.10
2017-12-19T16:34:21.041Z,24.37
2017-12-19T16:36:49.382Z,28.90
2017-12-19T16:39:18.371Z,28.73
2017-12-19T16:41:45.949Z,26.43
2017-12-19T16:44:13.520Z,24.63
2017-12-19T16:46:41.119Z,22.00
2017-12-19T16:49:08.771Z,24.23
2017-12-19T16:51:36.342Z,24.47
2017-12-19T16:54:04.759Z,23.70
2017-12-19T16:56:32.342Z,23.50
2017-12-19T16:58:59.911Z,22.60
2017-12-19T17:01:28.282Z,23.63
2017-12-19T17:03:55.836Z,23.30
2017-12-19T17:06:23.476Z,24.53
2017-12-19T17:08:51.042Z,24.77
2017-12-19T17:11:18.686Z,24.60
2017-12-19T17:13:46.353Z,25.83
2017-12-19T17:16:14.686Z,24.67
2017-12-19T17:19:01.712Z,24.57
2017-12-19T17:21:30.044Z,23.93
2017-12-19T17:23:57.662Z,25.90
2017-12-19T17:26:25.242Z,24.40
2017-12-19T17:28:52.859Z,25.47
2017-12-19T17:31:20.425Z,24.90
2017-12-19T17:33:48.861Z,25.53
2017-12-19T17:36:16.464Z,23.70
2017-12-19T17:38:44.855Z,25.70
2017-12-19T17:41:13.201Z,24.67
2017-12-19T17:43:40.946Z,25.20
2017-12-19T17:46:26.923Z,25.80
2017-12-19T17:48:54.489Z,26.70
2017-12-19T17:51:22.090Z,26.40
2017-12-19T17:53:49.665Z,24.60
2017-12-19T17:56:18.018Z,26.87
2017-12-19T17:58:45.621Z,26.93
2017-12-19T18:01:13.952Z,27.60
2017-12-19T18:03:41.637Z,25.77
2017-12-19T18:06:09.752Z,25.83
2017-12-19T18:08:38.423Z,24.27
2017-12-19T18:11:06.059Z,24.30
2017-12-19T18:13:33.628Z,23.33
2017-12-19T18:16:01.208Z,23.80
2017-12-19T18:18:29.564Z,23.77
2017-12-19T18:20:57.134Z,25.20
2017-12-19T18:23:25.518Z,23.80
2017-12-19T18:25:56.599Z,23.00
2017-12-19T18:28:24.270Z,20.90
2017-12-19T18:30:51.927Z,23.90
2017-12-19T18:33:19.493Z,20.77
2017-12-19T18:35:47.106Z,21.10
2017-12-19T18:38:15.487Z,22.57
2017-12-19T18:40:43.871Z,22.40
2017-12-19T18:43:12.235Z,22.00
2017-12-19T18:45:39.872Z,20.40
2017-12-19T18:48:07.605Z,20.97
2017-12-19T18:50:35.472Z,21.47
2017-12-19T18:53:03.235Z,21.93
2017-12-19T18:55:30.840Z,21.20
2017-12-19T18:57:58.642Z,21.90
2017-12-19T19:00:26.238Z,20.37
2017-12-19T19:02:53.826Z,20.57
2017-12-19T19:05:21.464Z,21.50
2017-12-19T19:07:49.826Z,20.37
2017-12-19T19:10:17.417Z,21.07
2017-12-19T19:12:45.776Z,20.60
2017-12-19T19:15:15.235Z,20.83
2017-12-19T19:17:42.910Z,20.33
2017-12-19T19:20:11.257Z,20.27
2017-12-19T19:22:38.859Z,20.00
2017-12-19T19:25:07.302Z,17.87
2017-12-19T19:27:34.970Z,19.47
2017-12-19T19:30:02.693Z,21.03
2017-12-19T19:32:30.297Z,19.23
2017-12-19T19:34:57.947Z,19.33
2017-12-19T19:37:25.534Z,21.47
2017-12-19T19:39:53.326Z,18.60
2017-12-19T19:42:20.932Z,18.37
2017-12-19T19:44:48.518Z,20.60
2017-12-19T19:47:16.186Z,19.60
2017-12-19T19:49:44.613Z,18.63
2017-12-19T19:52:12.227Z,19.23
2017-12-19T19:54:40.626Z,19.10
2017-12-19T19:57:09.027Z,19.07
2017-12-19T19:59:36.623Z,18.33
2017-12-19T20:02:04.245Z,19.13
2017-12-19T20:04:31.936Z,19.40
2017-12-19T20:06:59.592Z,18.70
2017-12-19T20:09:27.279Z,18.70
2017-12-19T20:11:54.864Z,18.77
2017-12-19T20:14:23.232Z,18.40
2017-12-19T20:16:50.842Z,19.20
2017-12-19T20:19:18.444Z,17.93
2017-12-19T20:21:46.049Z,16.53
2017-12-19T20:24:13.649Z,19.07
2017-12-19T20:26:41.253Z,18.93
2017-12-19T20:29:09.627Z,17.97
2017-12-19T20:31:37.978Z,16.67
2017-12-19T20:34:05.564Z,16.30
2017-12-19T20:36:33.959Z,16.10
2017-12-19T20:39:02.380Z,15.33
2017-12-19T20:41:29.990Z,14.40
2017-12-19T20:43:57.582Z,15.30
2017-12-19T20:46:25.264Z,15.60
2017-12-19T20:48:52.936Z,16.57
2017-12-19T20:51:20.514Z,16.10
2017-12-19T20:53:48.185Z,16.00
2017-12-19T20:56:15.802Z,15.93
2017-12-19T20:58:43.415Z,14.60
2017-12-19T21:01:11.039Z,15.90
2017-12-19T21:03:38.627Z,15.20
2017-12-19T21:06:06.344Z,15.30
2017-12-19T21:08:33.955Z,14.03
2017-12-19T21:11:01.695Z,14.30
2017-12-19T21:13:29.438Z,14.87
2017-12-19T21:15:57.268Z,14.27
2017-12-19T21:18:25.818Z,15.33
2017-12-19T21:20:53.419Z,14.47
2017-12-19T21:23:22.559Z,14.30
2017-12-19T21:25:50.218Z,15.17
2017-12-19T21:28:17.897Z,15.90
2017-12-19T21:30:45.461Z,13.90
2017-12-19T21:33:13.046Z,13.93
2017-12-19T21:35:41.291Z,15.30
2017-12-19T21:38:09.134Z,13.57
2017-12-19T21:40:36.784Z,14.47
2017-12-19T21:43:05.153Z,14.37
2017-12-19T21:45:33.572Z,13.70
2017-12-19T21:48:01.158Z,15.30
2017-12-19T21:50:28.748Z,14.67
2017-12-19T21:52:56.313Z,13.43
2017-12-19T21:55:24.684Z,14.17
2017-12-19T21:57:53.079Z,14.33
2017-12-19T22:00:21.435Z,12.90
2017-12-19T22:02:49.130Z,13.93
2017-12-19T22:05:16.720Z,15.07
2017-12-19T22:07:45.070Z,13.13
2017-12-19T22:10:13.426Z,14.23
2017-12-19T22:12:41.769Z,12.90
2017-12-19T22:15:09.347Z,13.27
2017-12-19T22:17:36.966Z,13.17
2017-12-19T22:20:04.533Z,14.30
2017-12-19T22:22:32.134Z,13.60
2017-12-19T22:24:59.717Z,14.37
2017-12-19T22:27:28.168Z,14.40
2017-12-19T22:29:55.742Z,12.80
2017-12-19T22:32:23.321Z,12.97
2017-12-19T22:34:51.661Z,12.80
2017-12-19T22:37:19.221Z,13.60
2017-12-19T22:39:46.810Z,12.80
2017-12-19T22:42:15.245Z,13.07
2017-12-19T22:44:42.823Z,13.87
2017-12-19T22:47:10.409Z,12.97
2017-12-19T22:49:37.984Z,12.77
2017-12-19T22:52:06.342Z,14.17
2017-12-19T22:54:33.914Z,12.97
2017-12-19T22:57:01.574Z,12.80
2017-12-19T22:59:29.162Z,13.77
2017-12-19T23:01:57.580Z,14.43
2017-12-19T23:04:25.162Z,12.33
2017-12-19T23:06:52.742Z,13.57
2017-12-19T23:09:20.313Z,12.13
2017-12-19T23:11:48.844Z,12.87
2017-12-19T23:14:16.449Z,11.30
2017-12-19T23:16:44.019Z,11.87
2017-12-19T23:19:12.383Z,12.23
2017-12-19T23:21:39.953Z,11.20
2017-12-19T23:24:08.314Z,10.70
2017-12-19T23:26:35.887Z,10.80
2017-12-19T23:29:03.486Z,10.70
2017-12-19T23:31:31.174Z,10.37
2017-12-19T23:33:58.727Z,11.40
2017-12-19T23:36:26.326Z,10.93
2017-12-19T23:38:53.879Z,10.80
2017-12-19T23:41:21.463Z,11.80
2017-12-19T23:43:50.207Z,10.53
2017-12-19T23:46:18.578Z,10.73
2017-12-19T23:48:46.553Z,11.10
2017-12-19T23:51:14.149Z,10.77
2017-12-19T23:53:41.744Z,11.13
2017-12-19T23:56:10.069Z,10.70
2017-12-19T23:58:37.719Z,9.40
